sensor_id;sensor_type;location;lat;lon;timestamp;pressure;altitude;pressure_sealevel;temperature;humidity
80927;BME280;70385;44.538;18.532;2023-12-22T00:02:24;97437.75;;;3.91;100.00
80927;BME280;70385;44.538;18.532;2023-12-22T00:04:51;97438.94;;;3.84;100.00
80927;BME280;70385;44.538;18.532;2023-12-22T00:07:18;97427.56;;;3.88;100.00
80927;BME280;70385;44.538;18.532;2023-12-22T00:09:45;97431.66;;;3.92;100.00
80927;BME280;70385;44.538;18.532;2023-12-22T00:12:15;97426.78;;;3.86;100.00
80927;BME280;70385;44.538;18.532;2023-12-22T00:14:41;97439.00;;;3.83;100.00
80927;BME280;70385;44.538;18.532;2023-12-22T00:17:10;97422.50;;;3.85;100.00
80927;BME280;70385;44.538;18.532;2023-12-22T00:19:37;97427.31;;;3.93;100.00
80927;BME280;70385;44.538;18.532;2023-12-22T00:22:03;97436.16;;;4.06;100.00
80927;BME280;70385;44.538;18.532;2023-12-22T00:24:29;97434.69;;;4.01;100.00
80927;BME280;70385;44.538;18.532;2023-12-22T00:26:55;97440.03;;;3.97;100.00
80927;BME280;70385;44.538;18.532;2023-12-22T00:29:23;97443.13;;;4.04;100.00
80927;BME280;70385;44.538;18.532;2023-12-22T00:31:49;97437.06;;;4.22;100.00
80927;BME280;70385;44.538;18.532;2023-12-22T00:34:18;97439.19;;;4.14;100.00
80927;BME280;70385;44.538;18.532;2023-12-22T00:36:45;97434.16;;;4.63;100.00
80927;BME280;70385;44.538;18.532;2023-12-22T00:39:11;97444.44;;;5.13;100.00
80927;BME280;70385;44.538;18.532;2023-12-22T00:41:38;97434.50;;;5.53;99.70
80927;BME280;70385;44.538;18.532;2023-12-22T00:44:04;97433.00;;;5.49;97.95
80927;BME280;70385;44.538;18.532;2023-12-22T00:46:30;97454.50;;;5.51;98.69
80927;BME280;70385;44.538;18.532;2023-12-22T00:48:57;97451.72;;;5.54;99.44
80927;BME280;70385;44.538;18.532;2023-12-22T00:51:23;97456.59;;;5.60;98.24
80927;BME280;70385;44.538;18.532;2023-12-22T00:53:48;97452.34;;;5.59;98.75
80927;BME280;70385;44.538;18.532;2023-12-22T00:56:14;97450.69;;;5.88;98.30
80927;BME280;70385;44.538;18.532;2023-12-22T00:58:40;97452.97;;;5.94;96.16
80927;BME280;70385;44.538;18.532;2023-12-22T01:01:06;97453.47;;;6.01;97.11
80927;BME280;70385;44.538;18.532;2023-12-22T01:03:35;97442.56;;;6.10;96.17
80927;BME280;70385;44.538;18.532;2023-12-22T01:06:01;97446.22;;;6.36;94.60
80927;BME280;70385;44.538;18.532;2023-12-22T01:08:26;97448.78;;;6.37;95.11
80927;BME280;70385;44.538;18.532;2023-12-22T01:10:53;97450.75;;;6.18;96.53
80927;BME280;70385;44.538;18.532;2023-12-22T01:13:21;97460.72;;;6.10;97.46
80927;BME280;70385;44.538;18.532;2023-12-22T01:15:47;97453.72;;;5.96;97.77
80927;BME280;70385;44.538;18.532;2023-12-22T01:18:14;97459.50;;;5.86;98.38
80927;BME280;70385;44.538;18.532;2023-12-22T01:20:40;97459.59;;;5.68;99.41
80927;BME280;70385;44.538;18.532;2023-12-22T01:23:06;97442.00;;;5.58;100.00
80927;BME280;70385;44.538;18.532;2023-12-22T01:25:32;97452.38;;;5.58;100.00
80927;BME280;70385;44.538;18.532;2023-12-22T01:27:58;97448.72;;;5.46;100.00
80927;BME280;70385;44.538;18.532;2023-12-22T01:30:27;97459.75;;;5.34;100.00
80927;BME280;70385;44.538;18.532;2023-12-22T01:32:53;97448.44;;;5.19;100.00
80927;BME280;70385;44.538;18.532;2023-12-22T01:35:19;97453.28;;;5.09;100.00
80927;BME280;70385;44.538;18.532;2023-12-22T01:37:45;97465.22;;;4.96;100.00
80927;BME280;70385;44.538;18.532;2023-12-22T01:40:13;97465.03;;;4.83;100.00
80927;BME280;70385;44.538;18.532;2023-12-22T01:42:39;97461.00;;;4.78;100.00
80927;BME280;70385;44.538;18.532;2023-12-22T01:45:06;97450.03;;;4.73;100.00
80927;BME280;70385;44.538;18.532;2023-12-22T01:47:33;97456.28;;;4.69;100.00
80927;BME280;70385;44.538;18.532;2023-12-22T01:50:00;97456.00;;;4.57;100.00
80927;BME280;70385;44.538;18.532;2023-12-22T01:52:27;97457.16;;;4.52;100.00
80927;BME280;70385;44.538;18.532;2023-12-22T01:54:54;97451.59;;;4.42;100.00
80927;BME280;70385;44.538;18.532;2023-12-22T01:57:21;97436.97;;;4.41;100.00
80927;BME280;70385;44.538;18.532;2023-12-22T01:59:48;97444.28;;;4.33;100.00
80927;BME280;70385;44.538;18.532;2023-12-22T02:02:15;97438.03;;;4.20;100.00
80927;BME280;70385;44.538;18.532;2023-12-22T02:04:42;97438.34;;;4.14;100.00
80927;BME280;70385;44.538;18.532;2023-12-22T02:07:10;97451.53;;;4.26;100.00
80927;BME280;70385;44.538;18.532;2023-12-22T02:09:37;97446.72;;;4.36;100.00
80927;BME280;70385;44.538;18.532;2023-12-22T02:12:03;97449.59;;;4.65;100.00
80927;BME280;70385;44.538;18.532;2023-12-22T02:14:30;97441.44;;;4.55;100.00
80927;BME280;70385;44.538;18.532;2023-12-22T02:17:15;97446.38;;;4.60;100.00
80927;BME280;70385;44.538;18.532;2023-12-22T02:19:48;97457.88;;;4.71;100.00
80927;BME280;70385;44.538;18.532;2023-12-22T02:22:14;97457.66;;;4.76;100.00
80927;BME280;70385;44.538;18.532;2023-12-22T02:24:41;97454.19;;;4.93;100.00
80927;BME280;70385;44.538;18.532;2023-12-22T02:27:17;97468.19;;;5.06;100.00
80927;BME280;70385;44.538;18.532;2023-12-22T02:29:49;97475.63;;;5.12;100.00
80927;BME280;70385;44.538;18.532;2023-12-22T02:32:23;97471.28;;;5.12;100.00
80927;BME280;70385;44.538;18.532;2023-12-22T02:34:53;97487.19;;;5.22;100.00
80927;BME280;70385;44.538;18.532;2023-12-22T02:37:24;97494.69;;;5.11;100.00
80927;BME280;70385;44.538;18.532;2023-12-22T02:39:53;97496.41;;;5.43;100.00
80927;BME280;70385;44.538;18.532;2023-12-22T02:42:19;97512.38;;;5.36;100.00
80927;BME280;70385;44.538;18.532;2023-12-22T02:44:49;97514.16;;;5.51;100.00
80927;BME280;70385;44.538;18.532;2023-12-22T02:47:15;97506.28;;;5.53;100.00
80927;BME280;70385;44.538;18.532;2023-12-22T02:49:41;97507.56;;;5.93;100.00
80927;BME280;70385;44.538;18.532;2023-12-22T02:52:07;97512.84;;;5.91;100.00
80927;BME280;70385;44.538;18.532;2023-12-22T02:54:33;97519.28;;;5.84;100.00
80927;BME280;70385;44.538;18.532;2023-12-22T02:57:00;97517.69;;;5.82;100.00
80927;BME280;70385;44.538;18.532;2023-12-22T02:59:25;97516.41;;;5.89;100.00
80927;BME280;70385;44.538;18.532;2023-12-22T03:01:54;97524.38;;;5.86;100.00
80927;BME280;70385;44.538;18.532;2023-12-22T03:04:19;97519.19;;;5.70;100.00
80927;BME280;70385;44.538;18.532;2023-12-22T03:06:46;97530.06;;;5.76;100.00
80927;BME280;70385;44.538;18.532;2023-12-22T03:09:12;97535.41;;;5.73;100.00
80927;BME280;70385;44.538;18.532;2023-12-22T03:11:39;97538.94;;;5.72;100.00
80927;BME280;70385;44.538;18.532;2023-12-22T03:14:06;97538.09;;;5.72;100.00
80927;BME280;70385;44.538;18.532;2023-12-22T03:16:32;97541.28;;;5.61;100.00
80927;BME280;70385;44.538;18.532;2023-12-22T03:18:58;97529.72;;;5.51;100.00
80927;BME280;70385;44.538;18.532;2023-12-22T03:21:23;97534.22;;;5.47;100.00
80927;BME280;70385;44.538;18.532;2023-12-22T03:23:50;97524.13;;;5.43;100.00
80927;BME280;70385;44.538;18.532;2023-12-22T03:26:22;97541.34;;;5.44;100.00
80927;BME280;70385;44.538;18.532;2023-12-22T03:28:48;97554.16;;;5.47;100.00
80927;BME280;70385;44.538;18.532;2023-12-22T03:31:13;97549.44;;;5.38;100.00
80927;BME280;70385;44.538;18.532;2023-12-22T03:33:39;97538.72;;;5.28;100.00
80927;BME280;70385;44.538;18.532;2023-12-22T03:36:05;97542.31;;;5.26;100.00
80927;BME280;70385;44.538;18.532;2023-12-22T03:38:31;97537.22;;;5.24;100.00
80927;BME280;70385;44.538;18.532;2023-12-22T03:40:57;97539.06;;;5.22;100.00
80927;BME280;70385;44.538;18.532;2023-12-22T03:43:23;97538.69;;;5.12;100.00
80927;BME280;70385;44.538;18.532;2023-12-22T03:45:49;97560.41;;;5.10;100.00
80927;BME280;70385;44.538;18.532;2023-12-22T03:48:17;97567.59;;;5.05;100.00
80927;BME280;70385;44.538;18.532;2023-12-22T03:50:43;97557.91;;;5.08;100.00
80927;BME280;70385;44.538;18.532;2023-12-22T03:53:09;97547.53;;;5.08;100.00
80927;BME280;70385;44.538;18.532;2023-12-22T03:55:34;97545.38;;;5.16;100.00
80927;BME280;70385;44.538;18.532;2023-12-22T03:58:00;97552.97;;;5.19;100.00
80927;BME280;70385;44.538;18.532;2023-12-22T04:00:26;97545.53;;;5.13;100.00
80927;BME280;70385;44.538;18.532;2023-12-22T04:02:52;97558.75;;;5.09;100.00
80927;BME280;70385;44.538;18.532;2023-12-22T04:05:18;97546.69;;;5.08;100.00
80927;BME280;70385;44.538;18.532;2023-12-22T04:07:44;97553.63;;;5.07;100.00
80927;BME280;70385;44.538;18.532;2023-12-22T04:10:10;97548.63;;;5.04;100.00
80927;BME280;70385;44.538;18.532;2023-12-22T04:12:36;97544.09;;;5.08;100.00
80927;BME280;70385;44.538;18.532;2023-12-22T04:15:02;97555.31;;;5.08;100.00
80927;BME280;70385;44.538;18.532;2023-12-22T04:17:29;97551.22;;;5.04;100.00
80927;BME280;70385;44.538;18.532;2023-12-22T04:19:54;97573.63;;;5.05;100.00
80927;BME280;70385;44.538;18.532;2023-12-22T04:22:20;97579.16;;;4.98;100.00
80927;BME280;70385;44.538;18.532;2023-12-22T04:24:47;97581.91;;;4.95;100.00
80927;BME280;70385;44.538;18.532;2023-12-22T04:27:12;97585.34;;;4.95;100.00
80927;BME280;70385;44.538;18.532;2023-12-22T04:29:38;97569.44;;;4.85;100.00
80927;BME280;70385;44.538;18.532;2023-12-22T04:32:04;97582.75;;;4.95;100.00
80927;BME280;70385;44.538;18.532;2023-12-22T04:34:30;97580.16;;;4.95;100.00
80927;BME280;70385;44.538;18.532;2023-12-22T04:36:57;97578.56;;;4.93;100.00
80927;BME280;70385;44.538;18.532;2023-12-22T04:39:23;97597.56;;;4.93;100.00
80927;BME280;70385;44.538;18.532;2023-12-22T04:41:48;97585.91;;;5.02;100.00
80927;BME280;70385;44.538;18.532;2023-12-22T04:44:14;97591.28;;;4.97;100.00
80927;BME280;70385;44.538;18.532;2023-12-22T04:46:40;97593.13;;;4.95;100.00
80927;BME280;70385;44.538;18.532;2023-12-22T04:49:06;97587.25;;;4.92;100.00
80927;BME280;70385;44.538;18.532;2023-12-22T04:51:32;97585.91;;;4.84;100.00
80927;BME280;70385;44.538;18.532;2023-12-22T04:53:58;97599.06;;;4.80;100.00
80927;BME280;70385;44.538;18.532;2023-12-22T04:56:24;97599.22;;;4.77;100.00
80927;BME280;70385;44.538;18.532;2023-12-22T04:58:50;97611.50;;;4.73;100.00
80927;BME280;70385;44.538;18.532;2023-12-22T05:01:16;97619.19;;;4.75;100.00
80927;BME280;70385;44.538;18.532;2023-12-22T05:03:41;97618.59;;;4.70;100.00
80927;BME280;70385;44.538;18.532;2023-12-22T05:06:07;97620.34;;;4.69;100.00
80927;BME280;70385;44.538;18.532;2023-12-22T05:08:33;97625.59;;;4.68;100.00
80927;BME280;70385;44.538;18.532;2023-12-22T05:11:00;97625.59;;;4.68;100.00
80927;BME280;70385;44.538;18.532;2023-12-22T05:13:25;97630.09;;;4.64;100.00
80927;BME280;70385;44.538;18.532;2023-12-22T05:15:51;97642.06;;;4.67;100.00
80927;BME280;70385;44.538;18.532;2023-12-22T05:18:18;97642.97;;;4.66;100.00
80927;BME280;70385;44.538;18.532;2023-12-22T05:20:43;97640.50;;;4.63;100.00
80927;BME280;70385;44.538;18.532;2023-12-22T05:23:10;97643.72;;;4.68;100.00
80927;BME280;70385;44.538;18.532;2023-12-22T05:25:36;97639.16;;;4.73;100.00
80927;BME280;70385;44.538;18.532;2023-12-22T05:28:02;97634.44;;;4.81;100.00
80927;BME280;70385;44.538;18.532;2023-12-22T05:30:28;97646.63;;;4.79;100.00
80927;BME280;70385;44.538;18.532;2023-12-22T05:33:00;97650.47;;;4.89;100.00
80927;BME280;70385;44.538;18.532;2023-12-22T05:35:32;97639.41;;;4.85;100.00
80927;BME280;70385;44.538;18.532;2023-12-22T05:37:58;97638.56;;;4.85;100.00
80927;BME280;70385;44.538;18.532;2023-12-22T05:40:23;97650.31;;;4.92;100.00
80927;BME280;70385;44.538;18.532;2023-12-22T05:42:49;97662.66;;;4.87;100.00
80927;BME280;70385;44.538;18.532;2023-12-22T05:45:15;97658.22;;;4.89;100.00
80927;BME280;70385;44.538;18.532;2023-12-22T05:47:41;97663.09;;;4.95;100.00
80927;BME280;70385;44.538;18.532;2023-12-22T05:50:08;97688.94;;;4.97;100.00
80927;BME280;70385;44.538;18.532;2023-12-22T05:52:34;97702.78;;;4.78;100.00
80927;BME280;70385;44.538;18.532;2023-12-22T05:55:01;97738.91;;;4.81;100.00
80927;BME280;70385;44.538;18.532;2023-12-22T05:57:27;97739.09;;;4.96;100.00
80927;BME280;70385;44.538;18.532;2023-12-22T05:59:53;97743.03;;;5.56;100.00
80927;BME280;70385;44.538;18.532;2023-12-22T06:02:19;97752.72;;;6.04;100.00
80927;BME280;70385;44.538;18.532;2023-12-22T06:04:45;97757.78;;;6.23;100.00
80927;BME280;70385;44.538;18.532;2023-12-22T06:07:11;97766.28;;;6.43;100.00
80927;BME280;70385;44.538;18.532;2023-12-22T06:09:37;97775.94;;;6.56;100.00
80927;BME280;70385;44.538;18.532;2023-12-22T06:12:03;97773.91;;;6.46;100.00
80927;BME280;70385;44.538;18.532;2023-12-22T06:14:31;97784.47;;;6.43;100.00
80927;BME280;70385;44.538;18.532;2023-12-22T06:16:59;97793.63;;;6.32;100.00
80927;BME280;70385;44.538;18.532;2023-12-22T06:19:25;97793.81;;;6.29;100.00
80927;BME280;70385;44.538;18.532;2023-12-22T06:21:55;97800.50;;;6.18;100.00
80927;BME280;70385;44.538;18.532;2023-12-22T06:24:21;97796.91;;;6.20;100.00
80927;BME280;70385;44.538;18.532;2023-12-22T06:26:47;97811.72;;;6.18;100.00
80927;BME280;70385;44.538;18.532;2023-12-22T06:29:16;97827.31;;;6.18;100.00
80927;BME280;70385;44.538;18.532;2023-12-22T06:31:44;97834.25;;;6.18;100.00
80927;BME280;70385;44.538;18.532;2023-12-22T06:34:10;97841.22;;;6.17;100.00
80927;BME280;70385;44.538;18.532;2023-12-22T06:36:36;97822.41;;;6.12;100.00
80927;BME280;70385;44.538;18.532;2023-12-22T06:39:03;97848.78;;;6.04;100.00
80927;BME280;70385;44.538;18.532;2023-12-22T06:41:30;97849.13;;;5.97;100.00
80927;BME280;70385;44.538;18.532;2023-12-22T06:43:57;97854.78;;;5.88;100.00
80927;BME280;70385;44.538;18.532;2023-12-22T06:46:28;97850.06;;;5.78;100.00
80927;BME280;70385;44.538;18.532;2023-12-22T06:48:58;97870.50;;;5.85;100.00
80927;BME280;70385;44.538;18.532;2023-12-22T06:53:52;97896.47;;;5.85;100.00
80927;BME280;70385;44.538;18.532;2023-12-22T06:56:52;97889.88;;;5.77;100.00
80927;BME280;70385;44.538;18.532;2023-12-22T06:59:25;97893.25;;;5.79;100.00
80927;BME280;70385;44.538;18.532;2023-12-22T07:01:50;97900.41;;;5.74;100.00
80927;BME280;70385;44.538;18.532;2023-12-22T07:04:16;97905.91;;;5.68;100.00
80927;BME280;70385;44.538;18.532;2023-12-22T07:06:44;97920.63;;;5.68;100.00
80927;BME280;70385;44.538;18.532;2023-12-22T07:11:52;97950.00;;;5.68;100.00
80927;BME280;70385;44.538;18.532;2023-12-22T07:14:21;97950.09;;;5.67;100.00
80927;BME280;70385;44.538;18.532;2023-12-22T07:16:50;97938.94;;;5.65;100.00
80927;BME280;70385;44.538;18.532;2023-12-22T07:19:17;97912.00;;;5.67;100.00
80927;BME280;70385;44.538;18.532;2023-12-22T07:21:47;97904.38;;;5.64;100.00
80927;BME280;70385;44.538;18.532;2023-12-22T07:24:14;97893.69;;;5.70;100.00
80927;BME280;70385;44.538;18.532;2023-12-22T07:26:49;97876.44;;;5.69;100.00
80927;BME280;70385;44.538;18.532;2023-12-22T07:29:17;97861.34;;;5.60;100.00
80927;BME280;70385;44.538;18.532;2023-12-22T07:31:43;97882.63;;;5.67;100.00
80927;BME280;70385;44.538;18.532;2023-12-22T07:34:09;97902.47;;;5.68;100.00
80927;BME280;70385;44.538;18.532;2023-12-22T07:36:35;97929.34;;;5.67;100.00
80927;BME280;70385;44.538;18.532;2023-12-22T07:39:01;97928.41;;;5.68;100.00
80927;BME280;70385;44.538;18.532;2023-12-22T07:41:27;97938.28;;;5.78;100.00
80927;BME280;70385;44.538;18.532;2023-12-22T07:43:59;97929.97;;;5.89;100.00
80927;BME280;70385;44.538;18.532;2023-12-22T07:46:25;97934.75;;;5.98;100.00
80927;BME280;70385;44.538;18.532;2023-12-22T07:48:51;97925.91;;;6.02;100.00
80927;BME280;70385;44.538;18.532;2023-12-22T07:51:18;97945.69;;;6.05;100.00
80927;BME280;70385;44.538;18.532;2023-12-22T07:53:44;97934.53;;;6.03;100.00
80927;BME280;70385;44.538;18.532;2023-12-22T07:56:12;97948.56;;;6.16;100.00
80927;BME280;70385;44.538;18.532;2023-12-22T07:58:39;97939.41;;;6.26;100.00
80927;BME280;70385;44.538;18.532;2023-12-22T08:01:05;97953.69;;;6.35;100.00
80927;BME280;70385;44.538;18.532;2023-12-22T08:03:33;97951.34;;;6.30;100.00
80927;BME280;70385;44.538;18.532;2023-12-22T08:05:59;97956.84;;;6.24;100.00
80927;BME280;70385;44.538;18.532;2023-12-22T08:08:25;97938.75;;;6.23;100.00
80927;BME280;70385;44.538;18.532;2023-12-22T08:10:52;97931.03;;;6.21;100.00
80927;BME280;70385;44.538;18.532;2023-12-22T08:13:48;97950.81;;;6.24;100.00
80927;BME280;70385;44.538;18.532;2023-12-22T08:16:15;97942.19;;;6.23;100.00
80927;BME280;70385;44.538;18.532;2023-12-22T08:18:49;97917.13;;;6.22;100.00
80927;BME280;70385;44.538;18.532;2023-12-22T08:21:16;97904.81;;;6.26;100.00
80927;BME280;70385;44.538;18.532;2023-12-22T08:23:44;97919.31;;;6.30;100.00
80927;BME280;70385;44.538;18.532;2023-12-22T08:26:15;97932.38;;;6.28;100.00
80927;BME280;70385;44.538;18.532;2023-12-22T08:28:47;97935.31;;;6.22;100.00
80927;BME280;70385;44.538;18.532;2023-12-22T08:31:13;97943.94;;;6.23;100.00
80927;BME280;70385;44.538;18.532;2023-12-22T08:33:43;97948.28;;;6.22;100.00
80927;BME280;70385;44.538;18.532;2023-12-22T08:36:11;97966.16;;;6.28;100.00
80927;BME280;70385;44.538;18.532;2023-12-22T08:38:39;97972.34;;;6.26;100.00
80927;BME280;70385;44.538;18.532;2023-12-22T08:41:09;97968.91;;;6.25;100.00
80927;BME280;70385;44.538;18.532;2023-12-22T08:43:38;97971.06;;;6.17;100.00
80927;BME280;70385;44.538;18.532;2023-12-22T08:46:07;97982.97;;;6.21;100.00
80927;BME280;70385;44.538;18.532;2023-12-22T08:48:35;97995.19;;;6.19;100.00
80927;BME280;70385;44.538;18.532;2023-12-22T08:51:04;97987.53;;;6.16;100.00
80927;BME280;70385;44.538;18.532;2023-12-22T08:53:33;98010.00;;;6.17;100.00
80927;BME280;70385;44.538;18.532;2023-12-22T08:56:02;98016.09;;;6.16;100.00
80927;BME280;70385;44.538;18.532;2023-12-22T08:58:29;98027.28;;;6.18;100.00
80927;BME280;70385;44.538;18.532;2023-12-22T09:01:02;98036.88;;;6.16;100.00
80927;BME280;70385;44.538;18.532;2023-12-22T09:03:43;98039.19;;;6.22;100.00
80927;BME280;70385;44.538;18.532;2023-12-22T09:06:46;98017.00;;;6.15;100.00
80927;BME280;70385;44.538;18.532;2023-12-22T09:09:23;98024.91;;;6.31;100.00
80927;BME280;70385;44.538;18.532;2023-12-22T09:11:52;98015.59;;;6.27;100.00
80927;BME280;70385;44.538;18.532;2023-12-22T09:14:19;97980.22;;;6.24;100.00
80927;BME280;70385;44.538;18.532;2023-12-22T09:17:05;97984.50;;;6.25;100.00
80927;BME280;70385;44.538;18.532;2023-12-22T09:19:36;97942.53;;;6.16;100.00
80927;BME280;70385;44.538;18.532;2023-12-22T09:22:05;97955.47;;;6.17;100.00
80927;BME280;70385;44.538;18.532;2023-12-22T09:24:33;97969.50;;;6.13;100.00
80927;BME280;70385;44.538;18.532;2023-12-22T09:26:59;97969.34;;;6.16;100.00
80927;BME280;70385;44.538;18.532;2023-12-22T09:29:31;97962.56;;;6.14;100.00
80927;BME280;70385;44.538;18.532;2023-12-22T09:32:02;97961.03;;;6.09;100.00
80927;BME280;70385;44.538;18.532;2023-12-22T09:34:30;97958.97;;;6.16;100.00
80927;BME280;70385;44.538;18.532;2023-12-22T09:36:56;97933.81;;;6.17;100.00
80927;BME280;70385;44.538;18.532;2023-12-22T09:39:22;97934.53;;;6.20;100.00
80927;BME280;70385;44.538;18.532;2023-12-22T09:41:50;97928.88;;;6.29;100.00
80927;BME280;70385;44.538;18.532;2023-12-22T09:44:20;97931.63;;;6.44;100.00
80927;BME280;70385;44.538;18.532;2023-12-22T09:46:48;97918.38;;;6.48;100.00
80927;BME280;70385;44.538;18.532;2023-12-22T09:49:20;97913.91;;;6.67;100.00
80927;BME280;70385;44.538;18.532;2023-12-22T09:51:49;97896.19;;;6.76;100.00
80927;BME280;70385;44.538;18.532;2023-12-22T09:54:27;97901.72;;;6.85;100.00
80927;BME280;70385;44.538;18.532;2023-12-22T09:56:56;97921.25;;;6.77;100.00
80927;BME280;70385;44.538;18.532;2023-12-22T09:59:27;97924.44;;;6.82;100.00
80927;BME280;70385;44.538;18.532;2023-12-22T10:02:00;97926.56;;;6.91;100.00
80927;BME280;70385;44.538;18.532;2023-12-22T10:04:28;97926.00;;;7.02;100.00
80927;BME280;70385;44.538;18.532;2023-12-22T10:06:58;97943.88;;;7.08;100.00
80927;BME280;70385;44.538;18.532;2023-12-22T10:09:26;97921.88;;;6.97;100.00
80927;BME280;70385;44.538;18.532;2023-12-22T10:11:52;97926.84;;;7.02;100.00
80927;BME280;70385;44.538;18.532;2023-12-22T10:14:21;97923.22;;;7.05;100.00
80927;BME280;70385;44.538;18.532;2023-12-22T10:16:49;97926.59;;;7.07;100.00
80927;BME280;70385;44.538;18.532;2023-12-22T10:19:19;97936.22;;;7.05;100.00
80927;BME280;70385;44.538;18.532;2023-12-22T10:21:45;97941.84;;;7.13;100.00
80927;BME280;70385;44.538;18.532;2023-12-22T10:27:03;97927.94;;;7.29;100.00
80927;BME280;70385;44.538;18.532;2023-12-22T10:29:29;97920.31;;;7.26;100.00
80927;BME280;70385;44.538;18.532;2023-12-22T10:31:55;97914.72;;;7.34;100.00
80927;BME280;70385;44.538;18.532;2023-12-22T10:34:21;97927.88;;;7.47;100.00
80927;BME280;70385;44.538;18.532;2023-12-22T10:36:47;97924.25;;;7.49;100.00
80927;BME280;70385;44.538;18.532;2023-12-22T10:39:15;97919.31;;;7.60;100.00
80927;BME280;70385;44.538;18.532;2023-12-22T10:41:41;97934.00;;;7.61;100.00
80927;BME280;70385;44.538;18.532;2023-12-22T10:44:10;97937.53;;;7.60;100.00
80927;BME280;70385;44.538;18.532;2023-12-22T10:46:36;97927.78;;;7.48;100.00
80927;BME280;70385;44.538;18.532;2023-12-22T10:49:02;97932.66;;;7.54;100.00
80927;BME280;70385;44.538;18.532;2023-12-22T10:51:29;97941.97;;;7.43;100.00
80927;BME280;70385;44.538;18.532;2023-12-22T10:54:00;97932.84;;;7.36;100.00
80927;BME280;70385;44.538;18.532;2023-12-22T10:56:26;97925.13;;;7.34;100.00
80927;BME280;70385;44.538;18.532;2023-12-22T10:58:53;97932.31;;;7.45;100.00
80927;BME280;70385;44.538;18.532;2023-12-22T11:01:21;97928.97;;;7.43;100.00
80927;BME280;70385;44.538;18.532;2023-12-22T11:03:51;97929.88;;;7.42;100.00
80927;BME280;70385;44.538;18.532;2023-12-22T11:06:17;97944.16;;;7.50;100.00
80927;BME280;70385;44.538;18.532;2023-12-22T11:08:44;97940.56;;;7.53;100.00
80927;BME280;70385;44.538;18.532;2023-12-22T11:11:30;97938.00;;;7.51;100.00
80927;BME280;70385;44.538;18.532;2023-12-22T11:13:57;97924.44;;;7.46;100.00
80927;BME280;70385;44.538;18.532;2023-12-22T11:16:24;97923.09;;;7.55;100.00
80927;BME280;70385;44.538;18.532;2023-12-22T11:18:53;97921.91;;;7.60;100.00
80927;BME280;70385;44.538;18.532;2023-12-22T11:21:24;97922.75;;;7.61;100.00
80927;BME280;70385;44.538;18.532;2023-12-22T11:23:52;97930.88;;;7.71;100.00
80927;BME280;70385;44.538;18.532;2023-12-22T11:26:22;97913.72;;;7.82;100.00
80927;BME280;70385;44.538;18.532;2023-12-22T11:28:49;97904.81;;;7.86;100.00
80927;BME280;70385;44.538;18.532;2023-12-22T11:31:17;97895.69;;;7.79;100.00
80927;BME280;70385;44.538;18.532;2023-12-22T11:33:49;97896.97;;;7.72;100.00
80927;BME280;70385;44.538;18.532;2023-12-22T11:36:16;97886.78;;;7.68;100.00
80927;BME280;70385;44.538;18.532;2023-12-22T11:38:44;97885.78;;;7.70;100.00
80927;BME280;70385;44.538;18.532;2023-12-22T11:41:25;97885.44;;;7.76;100.00
80927;BME280;70385;44.538;18.532;2023-12-22T11:43:53;97868.38;;;7.71;100.00
80927;BME280;70385;44.538;18.532;2023-12-22T11:46:20;97863.97;;;7.73;100.00
80927;BME280;70385;44.538;18.532;2023-12-22T11:48:52;97873.47;;;7.88;100.00
80927;BME280;70385;44.538;18.532;2023-12-22T11:51:18;97873.53;;;8.02;100.00
80927;BME280;70385;44.538;18.532;2023-12-22T11:53:46;97891.50;;;8.37;100.00
80927;BME280;70385;44.538;18.532;2023-12-22T11:56:12;97893.50;;;8.32;100.00
80927;BME280;70385;44.538;18.532;2023-12-22T11:58:46;97869.47;;;8.27;100.00
80927;BME280;70385;44.538;18.532;2023-12-22T12:01:22;97844.22;;;8.43;100.00
80927;BME280;70385;44.538;18.532;2023-12-22T12:03:51;97831.56;;;8.51;100.00
80927;BME280;70385;44.538;18.532;2023-12-22T12:08:52;97832.28;;;8.67;100.00
80927;BME280;70385;44.538;18.532;2023-12-22T12:11:20;97841.41;;;8.60;100.00
80927;BME280;70385;44.538;18.532;2023-12-22T12:13:47;97852.44;;;8.51;100.00
80927;BME280;70385;44.538;18.532;2023-12-22T12:16:14;97854.53;;;8.30;100.00
80927;BME280;70385;44.538;18.532;2023-12-22T12:18:41;97854.59;;;8.29;100.00
80927;BME280;70385;44.538;18.532;2023-12-22T12:21:10;97861.00;;;8.23;100.00
80927;BME280;70385;44.538;18.532;2023-12-22T12:23:37;97852.91;;;8.13;100.00
80927;BME280;70385;44.538;18.532;2023-12-22T12:26:09;97855.69;;;8.25;100.00
80927;BME280;70385;44.538;18.532;2023-12-22T12:28:38;97862.13;;;8.19;100.00
80927;BME280;70385;44.538;18.532;2023-12-22T12:31:06;97885.56;;;8.49;100.00
80927;BME280;70385;44.538;18.532;2023-12-22T12:33:37;97893.72;;;8.43;100.00
80927;BME280;70385;44.538;18.532;2023-12-22T12:36:05;97897.94;;;8.60;100.00
80927;BME280;70385;44.538;18.532;2023-12-22T12:38:59;97889.22;;;8.75;98.88
80927;BME280;70385;44.538;18.532;2023-12-22T12:41:31;97898.03;;;8.87;100.00
80927;BME280;70385;44.538;18.532;2023-12-22T12:44:07;97894.22;;;8.92;98.91
80927;BME280;70385;44.538;18.532;2023-12-22T12:46:40;97880.06;;;9.10;96.75
80927;BME280;70385;44.538;18.532;2023-12-22T12:49:11;97868.69;;;9.11;97.04
80927;BME280;70385;44.538;18.532;2023-12-22T12:51:38;97875.69;;;8.97;97.93
80927;BME280;70385;44.538;18.532;2023-12-22T12:54:06;97878.94;;;8.86;100.00
80927;BME280;70385;44.538;18.532;2023-12-22T12:57:00;97883.88;;;8.76;100.00
80927;BME280;70385;44.538;18.532;2023-12-22T12:59:30;97870.13;;;8.74;100.00
80927;BME280;70385;44.538;18.532;2023-12-22T13:02:00;97853.16;;;8.67;100.00
80927;BME280;70385;44.538;18.532;2023-12-22T13:04:37;97863.97;;;8.75;100.00
80927;BME280;70385;44.538;18.532;2023-12-22T13:07:06;97858.56;;;8.78;99.14